Time;durP1;ratioP1;P1;durP2;ratioP2;P2;SDS_P1;SDS_P2;PMS_P1;PMS_P2;Temp;Humidity;BMP_temperature;BMP_pressure;BME280_temperature;BME280_humidity;BME280_pressure;Samples;Min_cycle;Max_cycle;Signal;HPM_P1;HPM_P2
2022/06/07 00:02:25;;;;;;;6.00;2.80;;;;;;;18.31;65.20;98879.85;106330;1271;22538;-78
2022/06/07 00:04:53;;;;;;;7.60;3.30;;;;;;;18.30;65.29;98889.02;106313;1271;22673;-78
2022/06/07 00:07:22;;;;;;;7.20;3.30;;;;;;;18.27;65.31;98891.64;106413;1271;25336;-77
2022/06/07 00:09:49;;;;;;;6.90;3.70;;;;;;;18.20;65.22;98893.34;106189;1271;22697;-80
2022/06/07 00:12:17;;;;;;;8.60;3.80;;;;;;;18.11;65.31;98891.38;106136;1271;24246;-83
2022/06/07 00:14:47;;;;;;;8.60;4.20;;;;;;;18.08;65.43;98884.98;106087;1271;23147;-78
2022/06/07 00:17:14;;;;;;;8.20;3.90;;;;;;;18.04;65.45;98883.34;106103;1271;25297;-78
2022/06/07 00:19:42;;;;;;;7.80;3.70;;;;;;;17.97;65.57;98882.19;106025;1271;25341;-80
2022/06/07 00:22:15;;;;;;;8.90;3.60;;;;;;;17.92;65.57;98880.98;106296;1271;25554;-78
2022/06/07 00:24:43;;;;;;;10.30;4.20;;;;;;;17.93;65.75;98880.84;106096;1271;24288;-77
2022/06/07 00:27:15;;;;;;;7.90;3.90;;;;;;;17.96;65.84;98879.36;106267;1271;25437;-77
2022/06/07 00:29:46;;;;;;;8.90;3.80;;;;;;;17.98;65.84;98876.55;106102;1271;22735;-79
2022/06/07 00:32:15;;;;;;;8.20;3.80;;;;;;;18.00;65.93;98886.61;106299;1271;25306;-76
2022/06/07 00:34:42;;;;;;;9.00;3.70;;;;;;;18.01;66.07;98886.80;105995;1271;24354;-77
2022/06/07 00:37:12;;;;;;;8.90;4.20;;;;;;;18.04;66.04;98886.31;106284;1271;25519;-77
2022/06/07 00:39:40;;;;;;;9.10;3.30;;;;;;;18.04;65.96;98881.45;106252;1271;24309;-83
2022/06/07 00:42:07;;;;;;;6.60;3.10;;;;;;;18.02;65.92;98878.83;106229;1271;22544;-76
2022/06/07 00:45:00;;;;;;;6.90;3.00;;;;;;;18.05;66.12;98879.29;106015;1271;24231;-80
2022/06/07 00:47:33;;;;;;;9.50;3.70;;;;;;;18.10;66.15;98877.21;106269;1271;22528;-76
2022/06/07 00:50:12;;;;;;;9.80;4.00;;;;;;;18.13;66.12;98877.32;106270;1271;24392;-80
2022/06/07 00:52:45;;;;;;;10.40;3.70;;;;;;;18.06;65.93;98872.84;106139;1271;22625;-81
2022/06/07 00:55:13;;;;;;;8.40;3.50;;;;;;;17.92;65.85;98865.52;106094;1271;22532;-78
2022/06/07 00:57:52;;;;;;;6.80;3.20;;;;;;;17.81;65.96;98859.09;106262;1271;22754;-82
2022/06/07 01:00:30;;;;;;;7.20;3.60;;;;;;;17.71;65.93;98857.44;106242;1271;22626;-83
2022/06/07 01:03:23;;;;;;;8.10;3.60;;;;;;;17.60;66.01;98863.96;106219;1271;22694;-78
2022/06/07 01:05:54;;;;;;;9.30;3.60;;;;;;;17.52;66.10;98858.69;106285;1271;23186;-79
2022/06/07 01:11:24;;;;;;;;;;;;;;;;;;;;;
2022/06/07 01:14:00;;;;;;;7.70;3.90;;;;;;;17.34;66.22;98848.69;106346;1271;22556;-79
2022/06/07 01:16:31;;;;;;;7.40;3.40;;;;;;;17.27;66.16;98852.85;106247;1271;22532;-81
2022/06/07 01:18:59;;;;;;;10.60;4.00;;;;;;;17.19;66.15;98853.17;106288;1271;22550;-80
2022/06/07 01:21:40;;;;;;;11.60;4.00;;;;;;;17.11;66.18;98852.16;105965;1271;22564;-81
2022/06/07 01:24:09;;;;;;;10.50;4.00;;;;;;;17.00;66.16;98848.36;105995;1271;22554;-83
2022/06/07 01:26:43;;;;;;;11.10;3.90;;;;;;;16.88;66.17;98844.90;106103;1271;22542;-76
2022/06/07 01:29:11;;;;;;;7.30;3.20;;;;;;;16.77;66.31;98841.20;106222;1271;22584;-83
2022/06/07 01:31:48;;;;;;;9.80;3.50;;;;;;;16.72;66.44;98845.70;105932;1271;22538;-84
2022/06/07 01:34:20;;;;;;;10.60;4.90;;;;;;;16.67;66.55;98850.41;106157;1271;22550;-78
2022/06/07 01:36:49;;;;;;;10.00;4.20;;;;;;;16.67;66.66;98850.09;106299;1271;25238;-80
2022/06/07 01:42:15;;;;;;;9.40;4.50;;;;;;;16.59;66.73;98835.13;106135;1271;22564;-75
2022/06/07 01:44:47;;;;;;;9.60;4.30;;;;;;;16.54;66.69;98831.27;105999;1271;22655;-75
2022/06/07 01:47:27;;;;;;;8.90;4.00;;;;;;;16.48;66.73;98832.20;105995;1271;22665;-74
2022/06/07 01:50:00;;;;;;;7.00;3.70;;;;;;;16.40;66.94;98831.20;106000;1271;25238;-75
2022/06/07 01:52:32;;;;;;;8.50;4.10;;;;;;;16.37;66.87;98833.73;106287;1271;22651;-75
2022/06/07 01:55:04;;;;;;;10.30;4.80;;;;;;;16.32;66.94;98827.55;106039;1271;25405;-80
2022/06/07 01:57:35;;;;;;;8.60;4.30;;;;;;;16.32;66.98;98823.44;106081;1271;26699;-77
2022/06/07 02:00:30;;;;;;;9.80;5.50;;;;;;;16.30;67.14;98825.61;105607;1276;25552;-79
2022/06/07 02:03:01;;;;;;;9.20;4.90;;;;;;;16.19;66.99;98826.51;105784;1277;22563;-79
2022/06/07 02:06:00;;;;;;;11.90;5.50;;;;;;;16.10;67.09;98823.48;105704;1277;22694;-76
2022/06/07 02:08:42;;;;;;;;;;;;;;;;;;;;;
2022/06/07 02:11:16;;;;;;;12.50;5.10;;;;;;;16.06;67.24;98816.50;105870;1277;22700;-76
2022/06/07 02:13:47;;;;;;;10.10;5.30;;;;;;;16.02;67.19;98811.48;105707;1279;22775;-78
2022/06/07 02:16:16;;;;;;;9.40;5.30;;;;;;;16.02;67.37;98805.95;105819;1278;25505;-76
2022/06/07 02:18:44;;;;;;;11.90;5.60;;;;;;;16.05;67.29;98798.79;105635;1279;22695;-75
2022/06/07 02:21:34;;;;;;;10.50;5.30;;;;;;;15.95;67.16;98799.84;105807;1278;22691;-80
2022/06/07 02:24:07;;;;;;;11.70;5.70;;;;;;;15.85;67.31;98802.23;105621;1278;25507;-75
2022/06/07 02:26:49;;;;;;;9.40;5.00;;;;;;;15.78;67.18;98801.88;105679;1277;22680;-75
2022/06/07 02:29:45;;;;;;;11.80;4.70;;;;;;;15.66;67.27;98799.55;105481;1277;23351;-79
2022/06/07 02:32:33;;;;;;;11.90;4.60;;;;;;;15.58;67.38;98804.27;105787;1272;22691;-79
2022/06/07 02:35:03;;;;;;;8.30;3.90;;;;;;;15.58;67.55;98808.40;106260;1271;22682;-81
2022/06/07 02:37:37;;;;;;;7.80;3.50;;;;;;;15.59;67.59;98804.35;106312;1271;24300;-76
2022/06/07 02:40:08;;;;;;;8.00;3.80;;;;;;;15.64;67.72;98799.94;106299;1271;23971;-78
2022/06/07 02:42:36;;;;;;;8.00;3.70;;;;;;;15.63;67.49;98800.95;106051;1271;22567;-77
2022/06/07 02:45:24;;;;;;;8.50;4.10;;;;;;;15.53;67.40;98800.12;106292;1271;23341;-78
2022/06/07 02:48:15;;;;;;;10.80;4.10;;;;;;;15.43;67.53;98796.36;106257;1271;22523;-77
2022/06/07 02:50:51;;;;;;;12.10;3.40;;;;;;;15.44;67.72;98796.00;106309;1271;22538;-78
2022/06/07 02:53:21;;;;;;;6.90;3.20;;;;;;;15.51;67.80;98800.10;106369;1274;22532;-77
2022/06/07 02:55:51;;;;;;;6.90;3.00;;;;;;;15.60;67.94;98804.77;106011;1274;22577;-82
2022/06/07 02:58:42;;;;;;;9.20;4.00;;;;;;;15.69;67.79;98813.68;105924;1274;22654;-82
2022/06/07 03:01:14;;;;;;;9.40;3.70;;;;;;;15.64;67.62;98813.09;106051;1271;22543;-83
2022/06/07 03:03:43;;;;;;;8.40;3.80;;;;;;;15.53;67.55;98815.50;106021;1271;22538;-79
2022/06/07 03:06:21;;;;;;;8.90;4.00;;;;;;;15.43;67.74;98814.90;106272;1271;24370;-83
2022/06/07 03:08:52;;;;;;;8.90;4.10;;;;;;;15.42;67.93;98810.27;106288;1271;24269;-79
2022/06/07 03:11:46;;;;;;;7.60;3.80;;;;;;;15.42;67.91;98803.84;106036;1275;22695;-76
2022/06/07 03:14:18;;;;;;;7.90;3.20;;;;;;;15.39;67.94;98804.25;106086;1271;24188;-76
2022/06/07 03:17:02;;;;;;;9.80;4.00;;;;;;;15.47;68.16;98806.20;106045;1271;24237;-75
2022/06/07 03:19:37;;;;;;;8.00;3.60;;;;;;;15.60;68.18;98806.94;105972;1271;22534;-77
2022/06/07 03:22:12;;;;;;;9.50;4.50;;;;;;;15.75;68.17;98805.29;106011;1271;22525;-80
2022/06/07 03:24:47;;;;;;;13.70;5.00;;;;;;;15.92;68.31;98804.95;106215;1271;22719;-81
2022/06/07 03:27:20;;;;;;;11.80;5.30;;;;;;;16.06;68.31;98800.44;106301;1271;24403;-76
2022/06/07 03:29:50;;;;;;;8.90;4.80;;;;;;;16.18;68.25;98797.33;106217;1271;22525;-79
2022/06/07 03:32:27;;;;;;;7.70;4.30;;;;;;;16.30;68.25;98802.64;106336;1271;25587;-79
2022/06/07 03:34:54;;;;;;;10.50;5.10;;;;;;;16.38;68.13;98800.89;105967;1271;22806;-79
2022/06/07 03:37:22;;;;;;;8.60;4.70;;;;;;;16.45;68.13;98796.42;106274;1271;25467;-77
2022/06/07 03:39:50;;;;;;;14.20;5.10;;;;;;;16.54;68.08;98789.98;106251;1274;22553;-83
2022/06/07 03:42:19;;;;;;;12.20;5.50;;;;;;;16.64;68.19;98784.80;106284;1271;23682;-82
2022/06/07 03:44:48;;;;;;;13.50;6.00;;;;;;;16.77;68.11;98776.88;105943;1271;22819;-77
2022/06/07 03:47:18;;;;;;;12.80;5.40;;;;;;;16.83;67.94;98779.30;106291;1271;23166;-82
2022/06/07 03:49:47;;;;;;;13.40;5.50;;;;;;;16.88;67.84;98784.92;106373;1271;22540;-83
2022/06/07 03:52:15;;;;;;;14.50;5.60;;;;;;;16.85;67.86;98783.35;106142;1271;22691;-76
2022/06/07 03:54:44;;;;;;;15.80;6.50;;;;;;;16.85;67.97;98791.32;106071;1271;23944;-76
2022/06/07 03:57:14;;;;;;;14.60;6.90;;;;;;;16.86;67.82;98798.45;106359;1271;22527;-78
2022/06/07 03:59:47;;;;;;;16.60;6.20;;;;;;;16.87;67.93;98799.75;106295;1271;22529;-78
2022/06/07 04:02:14;;;;;;;14.20;6.10;;;;;;;16.90;67.97;98799.75;106249;1271;24236;-83
2022/06/07 04:04:41;;;;;;;16.00;6.30;;;;;;;16.94;67.84;98804.80;106049;1271;22554;-76
2022/06/07 04:09:59;;;;;;;19.70;7.10;;;;;;;16.93;67.84;98801.95;106116;1271;23936;-82
2022/06/07 04:12:36;;;;;;;18.50;6.80;;;;;;;17.04;67.86;98805.34;106009;1271;25229;-77
2022/06/07 04:15:03;;;;;;;14.20;6.90;;;;;;;17.13;67.86;98803.01;106140;1271;25341;-76
2022/06/07 04:17:31;;;;;;;15.20;6.90;;;;;;;17.13;67.86;98795.77;106302;1271;24411;-83
2022/06/07 04:20:21;;;;;;;13.50;5.80;;;;;;;17.13;67.89;98792.02;106248;1271;22649;-77
2022/06/07 04:22:48;;;;;;;13.20;6.10;;;;;;;17.21;67.97;98789.74;106303;1271;22535;-81
2022/06/07 04:25:15;;;;;;;14.30;5.10;;;;;;;17.35;67.96;98789.95;106145;1271;24314;-79
2022/06/07 04:27:45;;;;;;;12.00;4.60;;;;;;;17.56;68.06;98789.02;106250;1271;22566;-84
2022/06/07 04:30:13;;;;;;;11.80;3.50;;;;;;;17.90;68.23;98786.62;106114;1271;25743;-82
2022/06/07 04:32:51;;;;;;;11.60;3.00;;;;;;;18.25;67.64;98787.98;106312;1271;22545;-78
2022/06/07 04:35:24;;;;;;;10.80;3.00;;;;;;;18.50;67.51;98793.42;106260;1274;25451;-77
2022/06/07 04:37:55;;;;;;;9.20;2.80;;;;;;;18.77;67.47;98786.98;106291;1271;22757;-81
2022/06/07 04:40:25;;;;;;;8.40;2.60;;;;;;;18.87;67.47;98784.50;106138;1271;22532;-82
2022/06/07 04:42:58;;;;;;;8.00;2.90;;;;;;;18.88;67.42;98783.16;105959;1271;24361;-80
2022/06/07 04:45:31;;;;;;;7.50;2.80;;;;;;;18.90;67.36;98785.33;106255;1271;22533;-80
2022/06/07 04:48:07;;;;;;;10.40;3.10;;;;;;;18.89;67.18;98782.85;105987;1276;22753;-80
2022/06/07 04:50:40;;;;;;;10.60;2.80;;;;;;;18.88;67.21;98777.77;106266;1271;24198;-79
2022/06/07 04:53:07;;;;;;;13.20;3.20;;;;;;;18.89;67.26;98781.26;106133;1274;24254;-81
2022/06/07 04:55:34;;;;;;;9.60;2.60;;;;;;;18.90;67.05;98780.42;106224;1272;25560;-77
2022/06/07 04:58:01;;;;;;;10.70;2.90;;;;;;;18.92;67.19;98777.40;106103;1271;22537;-77
2022/06/07 05:00:39;;;;;;;6.50;2.80;;;;;;;18.93;67.17;98777.36;106261;1271;25232;-77
2022/06/07 05:03:10;;;;;;;11.20;3.00;;;;;;;19.01;67.19;98777.63;106046;1274;25490;-82
2022/06/07 05:05:43;;;;;;;10.10;3.10;;;;;;;19.02;66.51;98777.45;106293;1271;25952;-77
2022/06/07 05:08:22;;;;;;;10.50;3.00;;;;;;;19.14;66.78;98773.64;106168;1271;22609;-77
2022/06/07 05:10:59;;;;;;;7.00;2.70;;;;;;;19.39;66.79;98774.20;106295;1271;23336;-79
2022/06/07 05:13:28;;;;;;;8.40;2.70;;;;;;;19.85;66.31;98768.03;106023;1271;24232;-76
2022/06/07 05:15:56;;;;;;;11.50;2.80;;;;;;;20.08;65.93;98765.41;106027;1271;26593;-79
2022/06/07 05:18:24;;;;;;;10.70;2.40;;;;;;;20.23;66.17;98761.35;106180;1274;24746;-78
2022/06/07 05:21:28;;;;;;;9.10;2.60;;;;;;;20.36;66.11;98758.55;106443;1271;22690;-77
2022/06/07 05:23:56;;;;;;;8.50;2.50;;;;;;;20.49;66.11;98762.73;106010;1274;22727;-79
2022/06/07 05:26:26;;;;;;;11.10;2.30;;;;;;;20.49;65.84;98761.65;105930;1274;22554;-80
2022/06/07 05:28:54;;;;;;;7.70;2.40;;;;;;;20.47;65.91;98760.46;106230;1274;25427;-82
2022/06/07 05:31:22;;;;;;;8.10;2.30;;;;;;;20.45;66.03;98760.64;106260;1274;22535;-81
2022/06/07 05:33:50;;;;;;;7.80;2.10;;;;;;;20.42;65.97;98764.27;106155;1274;24315;-82
2022/06/07 05:36:19;;;;;;;13.90;2.40;;;;;;;20.38;65.94;98769.84;106075;1274;25445;-76
2022/06/07 05:38:47;;;;;;;10.80;3.30;;;;;;;20.34;66.06;98770.57;106223;1274;26108;-79
2022/06/07 05:41:21;;;;;;;12.70;3.10;;;;;;;20.30;66.01;98774.13;106301;1274;25343;-78
2022/06/07 05:43:49;;;;;;;12.60;3.00;;;;;;;20.25;65.76;98780.63;106064;1274;25341;-75
2022/06/07 05:46:22;;;;;;;15.80;3.20;;;;;;;20.15;65.57;98779.70;106107;1271;24205;-78
2022/06/07 05:48:57;;;;;;;9.00;2.70;;;;;;;20.05;65.53;98783.15;106107;1274;22569;-82
2022/06/07 05:51:34;;;;;;;10.60;2.50;;;;;;;19.90;65.35;98785.52;106233;1274;22834;-84
2022/06/07 05:54:04;;;;;;;12.10;3.30;;;;;;;19.82;65.81;98788.44;106087;1274;22534;-77
2022/06/07 05:56:34;;;;;;;9.60;2.80;;;;;;;19.74;65.55;98794.06;105875;1274;23497;-76
2022/06/07 05:59:05;;;;;;;12.10;2.70;;;;;;;19.61;65.69;98796.64;106132;1272;23289;-76
2022/06/07 06:01:34;;;;;;;12.90;2.60;;;;;;;19.55;65.51;98794.03;106122;1274;22624;-83
2022/06/07 06:04:07;;;;;;;11.70;2.40;;;;;;;19.51;65.59;98795.79;106314;1274;22528;-80
2022/06/07 06:06:38;;;;;;;14.50;2.80;;;;;;;19.50;65.80;98792.45;106252;1274;22547;-80
2022/06/07 06:11:58;;;;;;;23.50;3.30;;;;;;;19.45;66.02;98790.87;106246;1274;25268;-76
2022/06/07 06:14:33;;;;;;;23.00;3.40;;;;;;;19.40;65.79;98791.73;106083;1274;24357;-82
2022/06/07 06:17:20;;;;;;;;;;;;;;;;;;;;;
2022/06/07 06:19:51;;;;;;;25.30;3.70;;;;;;;19.30;65.68;98802.52;106274;1274;22672;-76
2022/06/07 06:22:19;;;;;;;22.70;4.20;;;;;;;19.25;65.79;98802.05;105990;1274;24253;-79
2022/06/07 06:24:58;;;;;;;28.40;4.00;;;;;;;19.21;65.83;98802.09;106119;1274;22758;-84
2022/06/07 06:27:25;;;;;;;25.80;4.70;;;;;;;19.18;65.80;98808.70;105950;1274;22608;-83
2022/06/07 06:29:55;;;;;;;20.70;4.00;;;;;;;19.15;65.69;98810.96;106009;1274;22548;-78
2022/06/07 06:32:22;;;;;;;21.80;3.40;;;;;;;19.15;65.62;98809.41;106244;1274;22535;-83
2022/06/07 06:35:00;;;;;;;12.00;3.20;;;;;;;19.16;65.96;98806.91;106247;1274;24353;-81
2022/06/07 06:37:31;;;;;;;15.30;3.40;;;;;;;19.21;65.89;98805.30;106172;1274;25659;-81
2022/06/07 06:40:03;;;;;;;13.30;3.60;;;;;;;19.25;66.06;98802.20;106033;1274;24364;-82
2022/06/07 06:42:33;;;;;;;10.90;3.30;;;;;;;19.25;66.03;98804.65;106244;1274;23217;-77
2022/06/07 06:45:15;;;;;;;17.70;3.60;;;;;;;19.30;66.03;98802.73;106260;1274;24278;-84
2022/06/07 06:48:27;;;;;;;14.90;3.50;;;;;;;19.34;66.16;98801.27;106252;1274;22546;-83
2022/06/07 06:51:19;;;;;;;15.00;3.60;;;;;;;19.42;66.15;98805.10;106288;1274;22849;-78
2022/06/07 06:53:52;;;;;;;10.70;3.40;;;;;;;19.48;66.25;98800.15;106002;1274;22559;-78
2022/06/07 06:56:35;;;;;;;16.00;3.20;;;;;;;19.55;65.96;98800.37;106047;1274;24412;-84
2022/06/07 06:59:22;;;;;;;11.90;3.30;;;;;;;19.61;65.83;98804.15;106193;1274;25235;-79
2022/06/07 07:01:55;;;;;;;19.60;3.60;;;;;;;19.76;66.09;98806.89;106315;1274;24277;-79
2022/06/07 07:04:44;;;;;;;18.00;3.90;;;;;;;19.89;65.99;98804.95;105972;1275;25519;-77
2022/06/07 07:07:11;;;;;;;20.20;3.60;;;;;;;20.01;65.70;98806.01;106310;1274;25536;-78
2022/06/07 07:09:59;;;;;;;18.60;3.90;;;;;;;20.07;65.75;98806.73;106203;1274;23177;-78
2022/06/07 07:12:26;;;;;;;22.00;4.00;;;;;;;20.14;65.57;98806.27;106177;1274;25350;-77
2022/06/07 07:14:59;;;;;;;24.50;4.00;;;;;;;20.11;65.06;98805.34;106300;1274;25240;-77
2022/06/07 07:17:35;;;;;;;17.50;3.80;;;;;;;20.03;65.17;98810.23;106249;1274;25652;-77
2022/06/07 07:20:04;;;;;;;16.00;3.50;;;;;;;20.01;64.98;98812.27;105979;1274;22532;-78
2022/06/07 07:22:31;;;;;;;19.00;4.00;;;;;;;19.99;65.18;98809.14;106300;1274;25499;-83
2022/06/07 07:24:58;;;;;;;15.20;3.50;;;;;;;20.00;65.30;98808.41;106255;1274;25317;-76
2022/06/07 07:27:26;;;;;;;16.90;3.90;;;;;;;20.01;65.12;98811.59;106124;1274;25265;-77
2022/06/07 07:29:53;;;;;;;21.40;3.70;;;;;;;20.03;65.26;98813.30;106228;1274;22565;-79
2022/06/07 07:32:23;;;;;;;16.90;3.40;;;;;;;20.11;65.57;98819.64;106275;1274;22572;-84
2022/06/07 07:34:56;;;;;;;22.00;3.50;;;;;;;20.18;65.49;98819.20;106216;1274;25230;-77
2022/06/07 07:37:25;;;;;;;28.10;4.30;;;;;;;20.28;65.21;98818.78;106093;1274;22553;-78
2022/06/07 07:39:58;;;;;;;28.10;4.00;;;;;;;20.33;64.90;98823.02;106300;1274;22542;-77
2022/06/07 07:42:26;;;;;;;23.20;4.00;;;;;;;20.32;64.53;98824.11;106362;1274;22560;-76
2022/06/07 07:45:12;;;;;;;13.20;2.90;;;;;;;20.28;64.48;98826.77;106190;1274;24202;-82
2022/06/07 07:47:40;;;;;;;16.90;3.10;;;;;;;20.23;64.79;98824.56;105994;1274;22575;-82
2022/06/07 07:50:09;;;;;;;9.50;2.70;;;;;;;20.26;64.96;98817.57;106008;1274;25615;-77
2022/06/07 07:52:38;;;;;;;16.50;3.00;;;;;;;20.32;65.08;98811.42;106289;1274;25229;-81
2022/06/07 07:55:09;;;;;;;9.50;3.00;;;;;;;20.43;65.24;98810.13;106254;1274;22569;-80
2022/06/07 07:57:36;;;;;;;10.40;2.80;;;;;;;20.58;65.23;98807.56;106155;1274;22550;-75
2022/06/07 08:00:09;;;;;;;7.00;2.20;;;;;;;20.75;65.29;98805.43;106030;1274;22566;-77
2022/06/07 08:02:40;;;;;;;7.90;2.00;;;;;;;20.96;64.70;98801.56;106172;1274;24289;-83
2022/06/07 08:05:16;;;;;;;8.90;2.40;;;;;;;20.99;64.53;98802.02;106262;1274;25660;-77
2022/06/07 08:07:44;;;;;;;6.60;1.90;;;;;;;20.94;64.27;98800.13;106230;1274;22549;-81
2022/06/07 08:10:11;;;;;;;7.30;2.10;;;;;;;20.82;64.22;98804.30;106042;1274;22616;-82
2022/06/07 08:12:47;;;;;;;8.30;2.40;;;;;;;20.77;64.50;98803.67;106161;1274;25464;-76
2022/06/07 08:15:15;;;;;;;7.00;2.20;;;;;;;20.81;64.73;98803.33;106040;1274;25397;-77
2022/06/07 08:17:43;;;;;;;9.30;2.30;;;;;;;20.94;65.07;98805.92;106238;1274;25228;-79
2022/06/07 08:20:12;;;;;;;6.00;2.30;;;;;;;21.12;65.02;98808.31;106222;1274;25623;-77
2022/06/07 08:22:39;;;;;;;8.60;1.70;;;;;;;21.31;65.12;98810.14;106233;1274;25465;-79
2022/06/07 08:25:10;;;;;;;7.30;1.70;;;;;;;21.51;64.38;98809.21;105895;1274;24249;-78
2022/06/07 08:27:38;;;;;;;5.40;1.60;;;;;;;21.76;64.27;98808.52;106255;1274;22605;-79
2022/06/07 08:30:15;;;;;;;4.30;1.20;;;;;;;22.05;64.05;98805.73;106080;1274;25237;-76
2022/06/07 08:32:46;;;;;;;5.40;1.80;;;;;;;22.20;62.92;98807.52;106095;1274;25235;-77
2022/06/07 08:38:05;;;;;;;6.00;1.70;;;;;;;22.53;63.36;98804.80;106222;1274;24250;-76
2022/06/07 08:40:36;;;;;;;3.80;1.30;;;;;;;22.72;63.33;98800.69;106234;1274;25551;-77
2022/06/07 08:43:23;;;;;;;9.60;1.80;;;;;;;22.88;62.73;98802.49;106307;1274;22637;-83
2022/06/07 08:45:54;;;;;;;5.00;1.60;;;;;;;22.85;61.87;98799.95;106333;1274;22688;-76
2022/06/07 08:48:26;;;;;;;6.50;1.50;;;;;;;22.73;62.18;98798.58;106268;1274;24276;-82
2022/06/07 08:51:00;;;;;;;4.20;1.50;;;;;;;22.77;62.34;98802.63;106162;1274;23915;-83
2022/06/07 08:53:53;;;;;;;8.60;1.90;;;;;;;22.81;62.45;98798.88;106269;1274;22706;-79
2022/06/07 08:56:32;;;;;;;7.70;1.90;;;;;;;22.83;62.19;98802.76;106302;1274;22553;-80
2022/06/07 08:59:11;;;;;;;8.00;1.70;;;;;;;22.79;62.31;98802.77;106280;1274;25462;-77
2022/06/07 09:01:50;;;;;;;7.80;1.60;;;;;;;22.83;62.49;98800.61;106264;1274;22541;-81
2022/06/07 09:04:29;;;;;;;5.10;1.60;;;;;;;22.79;61.66;98800.89;106219;1273;22584;-79
2022/06/07 09:07:25;;;;;;;7.80;1.60;;;;;;;22.49;60.90;98798.52;106237;1274;25445;-78
2022/06/07 09:13:19;;;;;;;7.60;1.90;;;;;;;22.06;61.60;98797.58;105922;1275;22567;-82
2022/06/07 09:15:50;;;;;;;6.90;1.90;;;;;;;22.08;62.09;98795.65;106138;1273;22618;-85
2022/06/07 09:18:19;;;;;;;10.30;2.00;;;;;;;22.15;61.92;98798.13;106202;1274;22714;-78
2022/06/07 09:20:57;;;;;;;9.40;1.90;;;;;;;22.16;61.49;98793.46;106240;1274;24274;-78
2022/06/07 09:23:50;;;;;;;13.30;2.30;;;;;;;22.14;61.74;98795.36;106135;1274;22736;-84
2022/06/07 09:26:30;;;;;;;12.70;1.70;;;;;;;22.22;62.03;98791.20;106272;1274;22534;-80
2022/06/07 09:29:09;;;;;;;14.60;2.10;;;;;;;22.32;61.90;98788.29;106248;1274;23041;-77
2022/06/07 09:31:41;;;;;;;13.60;2.40;;;;;;;22.36;61.32;98792.97;106258;1274;25528;-79
2022/06/07 09:34:26;;;;;;;12.40;2.50;;;;;;;22.32;61.33;98789.21;106249;1274;25510;-79
2022/06/07 09:37:07;;;;;;;15.40;2.20;;;;;;;22.35;61.32;98782.85;106190;1274;25350;-78
2022/06/07 09:39:43;;;;;;;7.10;1.90;;;;;;;22.48;61.50;98782.48;106267;1274;25468;-79
2022/06/07 09:42:13;;;;;;;10.10;2.10;;;;;;;22.62;61.07;98783.05;106218;1274;22752;-79
2022/06/07 09:45:02;;;;;;;11.20;1.90;;;;;;;22.73;61.31;98780.63;106145;1274;22541;-81
2022/06/07 09:47:33;;;;;;;4.50;1.40;;;;;;;22.87;60.60;98771.48;106198;1274;24252;-84
2022/06/07 09:50:17;;;;;;;7.70;1.30;;;;;;;22.82;60.05;98770.13;106741;1271;24274;-77
2022/06/07 09:52:52;;;;;;;5.10;1.50;;;;;;;22.73;59.91;98765.48;106350;1271;25566;-76
2022/06/07 09:55:21;;;;;;;5.70;1.30;;;;;;;22.78;60.35;98760.54;106386;1271;25362;-78
2022/06/07 09:58:05;;;;;;;7.00;1.60;;;;;;;22.73;59.53;98756.52;106159;1274;23934;-78
2022/06/07 10:00:36;;;;;;;6.70;1.50;;;;;;;22.71;60.36;98752.89;106551;1271;22539;-84
2022/06/07 10:03:30;;;;;;;6.10;1.50;;;;;;;22.86;60.31;98749.90;106355;1271;22529;-83
2022/06/07 10:06:27;;;;;;;5.20;1.70;;;;;;;22.95;60.07;98748.94;106247;1272;24271;-77
2022/06/07 10:09:18;;;;;;;4.90;1.70;;;;;;;23.07;59.68;98743.38;106410;1271;25253;-77
2022/06/07 10:12:01;;;;;;;5.60;1.60;;;;;;;23.06;59.54;98740.23;106099;1271;22534;-83
2022/06/07 10:15:13;;;;;;;5.10;1.60;;;;;;;23.25;59.85;98743.30;106340;1271;24305;-79
2022/06/07 10:18:08;;;;;;;5.20;1.60;;;;;;;23.36;59.54;98742.23;106373;1271;24437;-81
2022/06/07 10:20:41;;;;;;;6.40;1.60;;;;;;;23.20;59.24;98743.14;106297;1272;22547;-85
2022/06/07 10:23:23;;;;;;;5.00;1.60;;;;;;;23.08;59.20;98742.02;106320;1271;25845;-78
2022/06/07 10:25:50;;;;;;;6.90;1.50;;;;;;;23.05;59.36;98743.83;106238;1274;25147;-81
2022/06/07 10:28:35;;;;;;;6.00;1.80;;;;;;;23.23;59.80;98744.46;106332;1271;22560;-78
2022/06/07 10:31:25;;;;;;;7.50;2.20;;;;;;;23.34;59.49;98744.86;106294;1271;25298;-79
2022/06/07 10:33:59;;;;;;;6.80;2.10;;;;;;;23.20;59.12;98749.38;106325;1271;22567;-78
2022/06/07 10:37:01;;;;;;;7.70;1.80;;;;;;;22.97;59.18;98748.68;106056;1272;25298;-79
2022/06/07 10:40:18;;;;;;;6.10;2.00;;;;;;;22.82;59.08;98745.88;106321;1271;25355;-76
2022/06/07 10:42:51;;;;;;;6.70;2.00;;;;;;;22.52;59.31;98746.23;105885;1281;22528;-83
2022/06/07 10:45:29;;;;;;;3.70;1.50;;;;;;;22.50;59.85;98745.13;105700;1278;22690;-79
2022/06/07 10:48:37;;;;;;;6.40;2.00;;;;;;;22.53;59.51;98741.45;105663;1281;22587;-84
2022/06/07 10:55:40;;;;;;;5.60;2.10;;;;;;;22.51;58.70;98743.45;105811;1278;24299;-83
2022/06/07 10:58:39;;;;;;;4.10;1.70;;;;;;;22.21;58.73;98741.52;105770;1277;22555;-83
2022/06/07 11:01:48;;;;;;;5.40;1.80;;;;;;;22.16;59.32;98737.57;105814;1278;22580;-83
2022/06/07 11:10:44;;;;;;;5.60;1.90;;;;;;;22.26;59.05;98740.82;105876;1278;26694;-87
2022/06/07 11:13:36;;;;;;;5.00;1.80;;;;;;;22.19;58.94;98738.89;105727;1278;22566;-81
2022/06/07 11:16:57;;;;;;;5.90;1.80;;;;;;;21.90;59.01;98741.56;105558;1277;22549;-77
2022/06/07 11:19:25;;;;;;;4.60;1.60;;;;;;;21.64;58.91;98750.61;105873;1272;25451;-81
2022/06/07 11:22:05;;;;;;;5.30;2.10;;;;;;;21.31;58.89;98757.33;106180;1272;25346;-79
2022/06/07 11:24:35;;;;;;;5.30;2.10;;;;;;;20.98;59.22;98756.08;106062;1274;24059;-82
2022/06/07 11:27:50;;;;;;;6.30;1.90;;;;;;;20.84;59.71;98761.95;106356;1271;22573;-84
2022/06/07 11:31:13;;;;;;;5.80;2.30;;;;;;;20.62;59.38;98765.75;106307;1271;25435;-82
2022/06/07 11:33:42;;;;;;;5.80;2.10;;;;;;;20.29;59.66;98774.36;106310;1271;22661;-85
2022/06/07 11:36:12;;;;;;;7.10;2.00;;;;;;;20.08;59.73;98782.93;106253;1274;23901;-82
2022/06/07 11:39:16;;;;;;;5.60;2.20;;;;;;;19.83;60.00;98788.02;106331;1271;22587;-81
2022/06/07 11:41:52;;;;;;;5.70;2.10;;;;;;;19.62;60.22;98793.33;106415;1271;22672;-79
2022/06/07 11:44:19;;;;;;;5.80;2.30;;;;;;;19.49;60.43;98795.96;106320;1271;22653;-81
2022/06/07 11:47:13;;;;;;;7.10;2.70;;;;;;;19.38;60.50;98803.09;106168;1271;22526;-78
2022/06/07 11:49:49;;;;;;;5.50;2.20;;;;;;;19.17;60.65;98809.75;106064;1271;22651;-78
2022/06/07 11:52:19;;;;;;;6.40;2.30;;;;;;;19.03;60.88;98814.84;106289;1271;22516;-85
2022/06/07 11:55:05;;;;;;;6.60;2.10;;;;;;;18.96;60.85;98817.48;106322;1271;23062;-85
2022/06/07 11:57:31;;;;;;;4.60;1.90;;;;;;;18.93;61.30;98819.14;106151;1271;22540;-78
2022/06/07 12:00:22;;;;;;;6.50;1.80;;;;;;;18.94;61.32;98820.08;106213;1271;24421;-82
2022/06/07 12:03:31;;;;;;;5.00;2.20;;;;;;;18.90;61.35;98824.45;106398;1271;26548;-78
2022/06/07 12:06:25;;;;;;;7.20;2.20;;;;;;;18.94;61.62;98824.34;106121;1271;22560;-78
2022/06/07 12:09:03;;;;;;;5.30;2.10;;;;;;;18.96;61.64;98823.04;106309;1271;25356;-79
2022/06/07 12:11:55;;;;;;;5.40;2.00;;;;;;;19.03;61.77;98827.66;106105;1271;23266;-78
2022/06/07 12:14:47;;;;;;;5.00;1.80;;;;;;;19.09;61.77;98830.09;106133;1271;22569;-78
2022/06/07 12:17:26;;;;;;;7.30;2.60;;;;;;;19.07;61.58;98828.13;106143;1271;22556;-78
2022/06/07 12:19:58;;;;;;;6.80;2.20;;;;;;;19.02;61.75;98831.38;106093;1271;22600;-77
2022/06/07 12:22:39;;;;;;;7.00;2.60;;;;;;;18.98;61.99;98835.54;106178;1271;25601;-78
2022/06/07 12:25:30;;;;;;;6.30;2.80;;;;;;;18.99;62.25;98831.26;106328;1271;24781;-78
2022/06/07 12:27:58;;;;;;;6.60;2.60;;;;;;;19.07;62.40;98827.66;106213;1271;22609;-77
2022/06/07 12:30:32;;;;;;;7.60;2.80;;;;;;;18.96;61.96;98823.63;106117;1271;24070;-77
2022/06/07 12:33:14;;;;;;;7.60;2.60;;;;;;;18.82;62.32;98823.02;106210;1271;25625;-82
2022/06/07 12:35:59;;;;;;;7.60;2.80;;;;;;;18.78;62.42;98821.63;106230;1271;22537;-84
2022/06/07 12:38:30;;;;;;;6.50;2.50;;;;;;;18.83;62.92;98821.13;106237;1271;24208;-77